sensor_id;sensor_type;location;lat;lon;timestamp;temperature;humidity
51021;DHT22;38907;45.562;8.856;2022-11-13T00:02:26;10.70;99.90
51021;DHT22;38907;45.562;8.856;2022-11-13T00:07:28;10.60;99.90
51021;DHT22;38907;45.562;8.856;2022-11-13T00:12:30;10.60;99.90
51021;DHT22;38907;45.562;8.856;2022-11-13T00:17:33;10.50;99.90
51021;DHT22;38907;45.562;8.856;2022-11-13T00:22:35;10.40;99.90
51021;DHT22;38907;45.562;8.856;2022-11-13T00:27:37;10.40;99.90
51021;DHT22;38907;45.562;8.856;2022-11-13T00:32:40;10.40;99.90
51021;DHT22;38907;45.562;8.856;2022-11-13T00:37:42;10.40;99.90
51021;DHT22;38907;45.562;8.856;2022-11-13T00:42:43;10.50;99.90
51021;DHT22;38907;45.562;8.856;2022-11-13T00:47:47;10.50;99.90
51021;DHT22;38907;45.562;8.856;2022-11-13T00:52:49;10.60;99.90
51021;DHT22;38907;45.562;8.856;2022-11-13T00:57:52;10.60;99.90
51021;DHT22;38907;45.562;8.856;2022-11-13T01:02:56;10.70;99.90
51021;DHT22;38907;45.562;8.856;2022-11-13T01:07:58;10.70;99.90
51021;DHT22;38907;45.562;8.856;2022-11-13T01:13:00;10.60;99.90
51021;DHT22;38907;45.562;8.856;2022-11-13T01:18:03;10.60;99.90
51021;DHT22;38907;45.562;8.856;2022-11-13T01:23:05;10.60;99.90
51021;DHT22;38907;45.562;8.856;2022-11-13T01:28:07;10.60;99.90
51021;DHT22;38907;45.562;8.856;2022-11-13T01:33:11;10.70;99.90
51021;DHT22;38907;45.562;8.856;2022-11-13T01:38:13;10.80;99.90
51021;DHT22;38907;45.562;8.856;2022-11-13T01:43:23;10.80;99.90
51021;DHT22;38907;45.562;8.856;2022-11-13T01:48:32;10.80;99.90
51021;DHT22;38907;45.562;8.856;2022-11-13T01:53:34;10.80;99.90
51021;DHT22;38907;45.562;8.856;2022-11-13T01:58:37;10.90;99.90
51021;DHT22;38907;45.562;8.856;2022-11-13T02:03:41;10.90;99.90
51021;DHT22;38907;45.562;8.856;2022-11-13T02:08:43;10.90;99.90
51021;DHT22;38907;45.562;8.856;2022-11-13T02:13:46;10.90;99.90
51021;DHT22;38907;45.562;8.856;2022-11-13T02:18:50;10.90;99.90
51021;DHT22;38907;45.562;8.856;2022-11-13T02:23:58;11.00;99.90
51021;DHT22;38907;45.562;8.856;2022-11-13T02:29:02;11.00;99.90
51021;DHT22;38907;45.562;8.856;2022-11-13T02:34:04;11.00;99.90
51021;DHT22;38907;45.562;8.856;2022-11-13T02:39:09;11.00;99.90
51021;DHT22;38907;45.562;8.856;2022-11-13T02:44:12;11.10;99.90
51021;DHT22;38907;45.562;8.856;2022-11-13T02:49:14;11.10;99.90
51021;DHT22;38907;45.562;8.856;2022-11-13T02:54:16;11.10;99.90
51021;DHT22;38907;45.562;8.856;2022-11-13T02:59:19;11.10;99.90
51021;DHT22;38907;45.562;8.856;2022-11-13T03:04:21;11.00;99.90
51021;DHT22;38907;45.562;8.856;2022-11-13T03:09:23;10.90;99.90
51021;DHT22;38907;45.562;8.856;2022-11-13T03:14:26;11.00;99.90
51021;DHT22;38907;45.562;8.856;2022-11-13T03:19:28;10.90;99.90
51021;DHT22;38907;45.562;8.856;2022-11-13T03:24:30;10.90;99.90
51021;DHT22;38907;45.562;8.856;2022-11-13T03:29:33;10.90;99.90
51021;DHT22;38907;45.562;8.856;2022-11-13T03:34:35;10.90;99.90
51021;DHT22;38907;45.562;8.856;2022-11-13T03:39:38;10.80;99.90
51021;DHT22;38907;45.562;8.856;2022-11-13T03:44:41;10.80;99.90
51021;DHT22;38907;45.562;8.856;2022-11-13T03:49:43;10.70;99.90
51021;DHT22;38907;45.562;8.856;2022-11-13T03:54:45;10.60;99.90
51021;DHT22;38907;45.562;8.856;2022-11-13T03:59:48;10.60;99.90
51021;DHT22;38907;45.562;8.856;2022-11-13T04:04:50;10.50;99.90
51021;DHT22;38907;45.562;8.856;2022-11-13T04:09:51;10.60;99.90
51021;DHT22;38907;45.562;8.856;2022-11-13T04:14:55;10.60;99.90
51021;DHT22;38907;45.562;8.856;2022-11-13T04:19:57;10.60;99.90
51021;DHT22;38907;45.562;8.856;2022-11-13T04:24:58;10.60;99.90
51021;DHT22;38907;45.562;8.856;2022-11-13T04:30:02;10.50;99.90
51021;DHT22;38907;45.562;8.856;2022-11-13T04:35:05;10.50;99.90
51021;DHT22;38907;45.562;8.856;2022-11-13T04:40:09;10.60;99.90
51021;DHT22;38907;45.562;8.856;2022-11-13T04:45:12;10.60;99.90
51021;DHT22;38907;45.562;8.856;2022-11-13T04:50:15;10.60;99.90
51021;DHT22;38907;45.562;8.856;2022-11-13T04:55:17;10.60;99.90
51021;DHT22;38907;45.562;8.856;2022-11-13T05:00:20;10.70;99.90
51021;DHT22;38907;45.562;8.856;2022-11-13T05:05:22;10.70;99.90
51021;DHT22;38907;45.562;8.856;2022-11-13T05:10:24;10.70;99.90
51021;DHT22;38907;45.562;8.856;2022-11-13T05:15:27;10.70;99.90
51021;DHT22;38907;45.562;8.856;2022-11-13T05:20:29;10.70;99.90
51021;DHT22;38907;45.562;8.856;2022-11-13T05:25:31;10.60;99.90
51021;DHT22;38907;45.562;8.856;2022-11-13T05:30:34;10.60;99.90
51021;DHT22;38907;45.562;8.856;2022-11-13T05:35:36;10.50;99.90
51021;DHT22;38907;45.562;8.856;2022-11-13T05:40:38;10.50;99.90
51021;DHT22;38907;45.562;8.856;2022-11-13T05:45:41;10.50;99.90
51021;DHT22;38907;45.562;8.856;2022-11-13T05:50:43;10.40;99.90
51021;DHT22;38907;45.562;8.856;2022-11-13T05:55:45;10.40;99.90
51021;DHT22;38907;45.562;8.856;2022-11-13T06:00:48;10.40;99.90
51021;DHT22;38907;45.562;8.856;2022-11-13T06:05:50;10.40;99.90
51021;DHT22;38907;45.562;8.856;2022-11-13T06:10:52;10.40;99.90
51021;DHT22;38907;45.562;8.856;2022-11-13T06:16:02;10.40;99.90
51021;DHT22;38907;45.562;8.856;2022-11-13T06:21:06;10.40;99.90
51021;DHT22;38907;45.562;8.856;2022-11-13T06:26:10;10.30;99.90
51021;DHT22;38907;45.562;8.856;2022-11-13T06:31:15;10.30;99.90
51021;DHT22;38907;45.562;8.856;2022-11-13T06:36:19;10.30;99.90
51021;DHT22;38907;45.562;8.856;2022-11-13T06:41:23;10.20;99.90
51021;DHT22;38907;45.562;8.856;2022-11-13T06:46:27;10.30;99.90
51021;DHT22;38907;45.562;8.856;2022-11-13T06:51:29;10.40;99.90
51021;DHT22;38907;45.562;8.856;2022-11-13T06:56:31;10.60;99.90
51021;DHT22;38907;45.562;8.856;2022-11-13T07:01:35;10.70;99.90
51021;DHT22;38907;45.562;8.856;2022-11-13T07:06:36;10.90;99.90
51021;DHT22;38907;45.562;8.856;2022-11-13T07:11:38;11.10;99.90
51021;DHT22;38907;45.562;8.856;2022-11-13T07:16:41;11.20;99.90
51021;DHT22;38907;45.562;8.856;2022-11-13T07:21:43;11.30;99.90
51021;DHT22;38907;45.562;8.856;2022-11-13T07:26:45;11.40;99.90
51021;DHT22;38907;45.562;8.856;2022-11-13T07:31:48;11.50;99.90
51021;DHT22;38907;45.562;8.856;2022-11-13T07:36:50;11.60;99.90
51021;DHT22;38907;45.562;8.856;2022-11-13T07:41:52;11.80;99.90
51021;DHT22;38907;45.562;8.856;2022-11-13T07:46:55;11.90;99.90
51021;DHT22;38907;45.562;8.856;2022-11-13T07:51:57;12.10;99.90
51021;DHT22;38907;45.562;8.856;2022-11-13T07:56:59;12.30;99.90
51021;DHT22;38907;45.562;8.856;2022-11-13T08:02:02;12.50;99.90
51021;DHT22;38907;45.562;8.856;2022-11-13T08:07:04;12.70;99.90
51021;DHT22;38907;45.562;8.856;2022-11-13T08:12:06;12.70;99.90
51021;DHT22;38907;45.562;8.856;2022-11-13T08:17:10;12.80;99.90
51021;DHT22;38907;45.562;8.856;2022-11-13T08:22:11;12.90;99.90
51021;DHT22;38907;45.562;8.856;2022-11-13T08:27:13;12.90;99.90
51021;DHT22;38907;45.562;8.856;2022-11-13T08:32:17;13.00;99.90
51021;DHT22;38907;45.562;8.856;2022-11-13T08:37:19;13.10;99.90
51021;DHT22;38907;45.562;8.856;2022-11-13T08:42:21;13.10;99.90
51021;DHT22;38907;45.562;8.856;2022-11-13T08:47:25;13.20;99.90
51021;DHT22;38907;45.562;8.856;2022-11-13T08:52:28;13.30;99.90
51021;DHT22;38907;45.562;8.856;2022-11-13T08:57:29;13.40;99.90
51021;DHT22;38907;45.562;8.856;2022-11-13T09:02:33;13.50;99.90
51021;DHT22;38907;45.562;8.856;2022-11-13T09:07:34;13.60;99.90
51021;DHT22;38907;45.562;8.856;2022-11-13T09:12:36;13.60;99.90
51021;DHT22;38907;45.562;8.856;2022-11-13T09:17:40;13.60;99.90
51021;DHT22;38907;45.562;8.856;2022-11-13T09:22:41;13.60;99.90
51021;DHT22;38907;45.562;8.856;2022-11-13T09:27:51;13.70;99.90
51021;DHT22;38907;45.562;8.856;2022-11-13T09:32:55;13.80;99.90
51021;DHT22;38907;45.562;8.856;2022-11-13T09:37:57;13.70;99.90
51021;DHT22;38907;45.562;8.856;2022-11-13T09:43:00;13.80;99.90
51021;DHT22;38907;45.562;8.856;2022-11-13T09:48:13;13.70;99.90
51021;DHT22;38907;45.562;8.856;2022-11-13T09:53:18;13.90;99.90
51021;DHT22;38907;45.562;8.856;2022-11-13T09:58:25;13.80;99.90
51021;DHT22;38907;45.562;8.856;2022-11-13T10:03:35;13.90;99.90
51021;DHT22;38907;45.562;8.856;2022-11-13T10:08:48;13.80;99.90
51021;DHT22;38907;45.562;8.856;2022-11-13T10:13:53;13.80;99.90
51021;DHT22;38907;45.562;8.856;2022-11-13T10:19:08;13.80;99.90
51021;DHT22;38907;45.562;8.856;2022-11-13T10:24:16;13.80;99.90
51021;DHT22;38907;45.562;8.856;2022-11-13T10:29:20;13.90;99.90
51021;DHT22;38907;45.562;8.856;2022-11-13T10:34:23;14.00;99.90
51021;DHT22;38907;45.562;8.856;2022-11-13T10:39:25;14.20;99.90
51021;DHT22;38907;45.562;8.856;2022-11-13T10:44:33;14.30;99.90
51021;DHT22;38907;45.562;8.856;2022-11-13T10:49:37;14.30;99.90
51021;DHT22;38907;45.562;8.856;2022-11-13T10:54:39;14.20;99.90
51021;DHT22;38907;45.562;8.856;2022-11-13T10:59:42;14.20;99.90
51021;DHT22;38907;45.562;8.856;2022-11-13T11:04:46;14.30;99.90
51021;DHT22;38907;45.562;8.856;2022-11-13T11:09:48;14.50;99.90
51021;DHT22;38907;45.562;8.856;2022-11-13T11:15:14;14.40;99.90
51021;DHT22;38907;45.562;8.856;2022-11-13T11:20:38;14.50;99.90
51021;DHT22;38907;45.562;8.856;2022-11-13T11:25:47;14.60;99.90
51021;DHT22;38907;45.562;8.856;2022-11-13T11:30:54;14.60;99.90
51021;DHT22;38907;45.562;8.856;2022-11-13T11:36:01;14.70;99.90
51021;DHT22;38907;45.562;8.856;2022-11-13T11:41:08;14.70;99.90
51021;DHT22;38907;45.562;8.856;2022-11-13T11:46:12;14.70;99.90
51021;DHT22;38907;45.562;8.856;2022-11-13T11:51:22;14.70;99.90
51021;DHT22;38907;45.562;8.856;2022-11-13T11:56:30;14.80;99.90
51021;DHT22;38907;45.562;8.856;2022-11-13T12:01:55;14.80;99.90
51021;DHT22;38907;45.562;8.856;2022-11-13T12:07:11;14.80;99.90
51021;DHT22;38907;45.562;8.856;2022-11-13T12:12:19;14.90;99.90
51021;DHT22;38907;45.562;8.856;2022-11-13T12:17:35;15.10;99.90
51021;DHT22;38907;45.562;8.856;2022-11-13T12:22:46;15.10;99.90
51021;DHT22;38907;45.562;8.856;2022-11-13T12:27:56;15.00;99.90
51021;DHT22;38907;45.562;8.856;2022-11-13T12:33:07;15.10;99.90
51021;DHT22;38907;45.562;8.856;2022-11-13T12:38:21;15.20;99.90
51021;DHT22;38907;45.562;8.856;2022-11-13T12:43:40;15.10;99.90
51021;DHT22;38907;45.562;8.856;2022-11-13T12:48:44;15.20;99.90
51021;DHT22;38907;45.562;8.856;2022-11-13T12:53:50;15.10;99.90
51021;DHT22;38907;45.562;8.856;2022-11-13T12:58:54;15.00;99.90
51021;DHT22;38907;45.562;8.856;2022-11-13T13:04:27;14.80;99.90
51021;DHT22;38907;45.562;8.856;2022-11-13T13:09:48;14.90;99.90
51021;DHT22;38907;45.562;8.856;2022-11-13T13:15:27;15.00;99.90
51021;DHT22;38907;45.562;8.856;2022-11-13T13:20:34;15.00;99.90
51021;DHT22;38907;45.562;8.856;2022-11-13T13:25:38;15.00;99.90
51021;DHT22;38907;45.562;8.856;2022-11-13T13:30:51;15.10;99.90
51021;DHT22;38907;45.562;8.856;2022-11-13T13:36:03;15.10;99.90
51021;DHT22;38907;45.562;8.856;2022-11-13T13:41:17;15.20;99.90
51021;DHT22;38907;45.562;8.856;2022-11-13T13:46:25;15.10;99.90
51021;DHT22;38907;45.562;8.856;2022-11-13T13:51:33;15.10;99.90
51021;DHT22;38907;45.562;8.856;2022-11-13T13:56:41;15.00;99.90
51021;DHT22;38907;45.562;8.856;2022-11-13T14:01:52;14.90;99.90
51021;DHT22;38907;45.562;8.856;2022-11-13T14:06:56;14.90;99.90
51021;DHT22;38907;45.562;8.856;2022-11-13T14:12:01;15.00;99.90
51021;DHT22;38907;45.562;8.856;2022-11-13T14:17:03;15.00;99.90
51021;DHT22;38907;45.562;8.856;2022-11-13T14:22:09;14.90;99.90
51021;DHT22;38907;45.562;8.856;2022-11-13T14:27:17;14.90;99.90
51021;DHT22;38907;45.562;8.856;2022-11-13T14:32:22;14.80;99.90
51021;DHT22;38907;45.562;8.856;2022-11-13T14:37:28;14.80;99.90
51021;DHT22;38907;45.562;8.856;2022-11-13T14:42:36;14.70;99.90
51021;DHT22;38907;45.562;8.856;2022-11-13T14:47:39;14.70;99.90
51021;DHT22;38907;45.562;8.856;2022-11-13T14:52:41;14.70;99.90
51021;DHT22;38907;45.562;8.856;2022-11-13T14:57:48;14.60;99.90
51021;DHT22;38907;45.562;8.856;2022-11-13T15:02:50;14.60;99.90
51021;DHT22;38907;45.562;8.856;2022-11-13T15:07:53;14.40;99.90
51021;DHT22;38907;45.562;8.856;2022-11-13T15:12:57;14.40;99.90
51021;DHT22;38907;45.562;8.856;2022-11-13T15:18:00;14.30;99.90
51021;DHT22;38907;45.562;8.856;2022-11-13T15:23:02;14.20;99.90
51021;DHT22;38907;45.562;8.856;2022-11-13T15:28:06;14.20;99.90
51021;DHT22;38907;45.562;8.856;2022-11-13T15:33:13;14.20;99.90
51021;DHT22;38907;45.562;8.856;2022-11-13T15:38:15;14.20;99.90
51021;DHT22;38907;45.562;8.856;2022-11-13T15:43:18;14.10;99.90
51021;DHT22;38907;45.562;8.856;2022-11-13T15:48:20;14.00;99.90
51021;DHT22;38907;45.562;8.856;2022-11-13T15:53:22;13.90;99.90
51021;DHT22;38907;45.562;8.856;2022-11-13T15:58:25;13.80;99.90
51021;DHT22;38907;45.562;8.856;2022-11-13T16:03:27;13.70;99.90
51021;DHT22;38907;45.562;8.856;2022-11-13T16:08:31;13.60;99.90
51021;DHT22;38907;45.562;8.856;2022-11-13T16:13:34;13.50;99.90
51021;DHT22;38907;45.562;8.856;2022-11-13T16:18:36;13.50;99.90
51021;DHT22;38907;45.562;8.856;2022-11-13T16:23:39;13.40;99.90
51021;DHT22;38907;45.562;8.856;2022-11-13T16:28:42;13.30;99.90
51021;DHT22;38907;45.562;8.856;2022-11-13T16:33:44;13.20;99.90
51021;DHT22;38907;45.562;8.856;2022-11-13T16:38:46;13.10;99.90
51021;DHT22;38907;45.562;8.856;2022-11-13T16:43:50;13.10;99.90
51021;DHT22;38907;45.562;8.856;2022-11-13T16:48:52;13.10;99.90
51021;DHT22;38907;45.562;8.856;2022-11-13T16:53:55;13.10;99.90
51021;DHT22;38907;45.562;8.856;2022-11-13T16:58:58;12.90;99.90
51021;DHT22;38907;45.562;8.856;2022-11-13T17:04:00;12.90;99.90
51021;DHT22;38907;45.562;8.856;2022-11-13T17:09:03;13.00;99.90
51021;DHT22;38907;45.562;8.856;2022-11-13T17:14:09;12.90;99.90
51021;DHT22;38907;45.562;8.856;2022-11-13T17:19:11;12.90;99.90
51021;DHT22;38907;45.562;8.856;2022-11-13T17:24:13;12.90;99.90
51021;DHT22;38907;45.562;8.856;2022-11-13T17:29:17;12.80;99.90
51021;DHT22;38907;45.562;8.856;2022-11-13T17:34:19;12.70;99.90
51021;DHT22;38907;45.562;8.856;2022-11-13T17:39:21;12.70;99.90
51021;DHT22;38907;45.562;8.856;2022-11-13T17:44:24;12.70;99.90
51021;DHT22;38907;45.562;8.856;2022-11-13T17:49:26;12.70;99.90
51021;DHT22;38907;45.562;8.856;2022-11-13T17:54:29;12.70;99.90
51021;DHT22;38907;45.562;8.856;2022-11-13T17:59:32;12.70;99.90
51021;DHT22;38907;45.562;8.856;2022-11-13T18:04:34;12.70;99.90
51021;DHT22;38907;45.562;8.856;2022-11-13T18:09:36;12.70;99.90
51021;DHT22;38907;45.562;8.856;2022-11-13T18:14:39;12.70;99.90
51021;DHT22;38907;45.562;8.856;2022-11-13T18:19:43;12.70;99.90
51021;DHT22;38907;45.562;8.856;2022-11-13T18:24:45;12.70;99.90
51021;DHT22;38907;45.562;8.856;2022-11-13T18:29:49;12.60;99.90
51021;DHT22;38907;45.562;8.856;2022-11-13T18:34:52;12.60;99.90
51021;DHT22;38907;45.562;8.856;2022-11-13T18:39:54;12.70;99.90
51021;DHT22;38907;45.562;8.856;2022-11-13T18:44:59;12.60;99.90
51021;DHT22;38907;45.562;8.856;2022-11-13T18:50:01;12.60;99.90
51021;DHT22;38907;45.562;8.856;2022-11-13T18:55:04;12.60;99.90
51021;DHT22;38907;45.562;8.856;2022-11-13T19:00:09;12.60;99.90
51021;DHT22;38907;45.562;8.856;2022-11-13T19:05:11;12.60;99.90
51021;DHT22;38907;45.562;8.856;2022-11-13T19:10:14;12.60;99.90
51021;DHT22;38907;45.562;8.856;2022-11-13T19:15:19;12.60;99.90
51021;DHT22;38907;45.562;8.856;2022-11-13T19:20:20;12.60;99.90
51021;DHT22;38907;45.562;8.856;2022-11-13T19:25:23;12.60;99.90
51021;DHT22;38907;45.562;8.856;2022-11-13T19:30:27;12.50;99.90
51021;DHT22;38907;45.562;8.856;2022-11-13T19:35:29;12.50;99.90
51021;DHT22;38907;45.562;8.856;2022-11-13T19:40:33;12.50;99.90
51021;DHT22;38907;45.562;8.856;2022-11-13T19:45:36;12.20;99.90
51021;DHT22;38907;45.562;8.856;2022-11-13T19:50:38;12.10;99.90
51021;DHT22;38907;45.562;8.856;2022-11-13T19:55:40;12.10;99.90
51021;DHT22;38907;45.562;8.856;2022-11-13T20:00:43;12.10;99.90
51021;DHT22;38907;45.562;8.856;2022-11-13T20:05:49;12.10;99.90
51021;DHT22;38907;45.562;8.856;2022-11-13T20:10:52;12.10;99.90
51021;DHT22;38907;45.562;8.856;2022-11-13T20:15:55;12.00;99.90
51021;DHT22;38907;45.562;8.856;2022-11-13T20:20:58;12.10;99.90
51021;DHT22;38907;45.562;8.856;2022-11-13T20:26:03;12.20;99.90
51021;DHT22;38907;45.562;8.856;2022-11-13T20:31:11;12.10;99.90
51021;DHT22;38907;45.562;8.856;2022-11-13T20:36:16;12.00;99.90
51021;DHT22;38907;45.562;8.856;2022-11-13T20:41:19;12.10;99.90
51021;DHT22;38907;45.562;8.856;2022-11-13T20:46:25;12.20;99.90
51021;DHT22;38907;45.562;8.856;2022-11-13T20:51:27;12.20;99.90
51021;DHT22;38907;45.562;8.856;2022-11-13T20:56:29;12.20;99.90
51021;DHT22;38907;45.562;8.856;2022-11-13T21:01:33;12.20;99.90
51021;DHT22;38907;45.562;8.856;2022-11-13T21:06:37;12.30;99.90
51021;DHT22;38907;45.562;8.856;2022-11-13T21:11:39;12.30;99.90
51021;DHT22;38907;45.562;8.856;2022-11-13T21:16:43;12.30;99.90
51021;DHT22;38907;45.562;8.856;2022-11-13T21:21:45;12.30;99.90
51021;DHT22;38907;45.562;8.856;2022-11-13T21:26:47;12.20;99.90
51021;DHT22;38907;45.562;8.856;2022-11-13T21:31:51;12.20;99.90
51021;DHT22;38907;45.562;8.856;2022-11-13T21:36:52;12.30;99.90
51021;DHT22;38907;45.562;8.856;2022-11-13T21:41:54;12.20;99.90
51021;DHT22;38907;45.562;8.856;2022-11-13T21:46:57;12.10;99.90
51021;DHT22;38907;45.562;8.856;2022-11-13T21:51:59;12.10;99.90
51021;DHT22;38907;45.562;8.856;2022-11-13T21:57:02;12.10;99.90
51021;DHT22;38907;45.562;8.856;2022-11-13T22:02:08;12.00;99.90
51021;DHT22;38907;45.562;8.856;2022-11-13T22:07:10;12.00;99.90
51021;DHT22;38907;45.562;8.856;2022-11-13T22:12:11;12.00;99.90
51021;DHT22;38907;45.562;8.856;2022-11-13T22:17:15;12.00;99.90
51021;DHT22;38907;45.562;8.856;2022-11-13T22:22:17;12.00;99.90
51021;DHT22;38907;45.562;8.856;2022-11-13T22:27:18;11.90;99.90
51021;DHT22;38907;45.562;8.856;2022-11-13T22:32:22;11.90;99.90
51021;DHT22;38907;45.562;8.856;2022-11-13T22:37:24;11.90;99.90
51021;DHT22;38907;45.562;8.856;2022-11-13T22:42:25;11.90;99.90
51021;DHT22;38907;45.562;8.856;2022-11-13T22:47:29;11.90;99.90
51021;DHT22;38907;45.562;8.856;2022-11-13T22:52:31;11.90;99.90
51021;DHT22;38907;45.562;8.856;2022-11-13T22:57:33;11.80;99.90
51021;DHT22;38907;45.562;8.856;2022-11-13T23:02:36;11.80;99.90
51021;DHT22;38907;45.562;8.856;2022-11-13T23:07:38;11.80;99.90
51021;DHT22;38907;45.562;8.856;2022-11-13T23:12:40;11.80;99.90
51021;DHT22;38907;45.562;8.856;2022-11-13T23:17:44;11.70;99.90
51021;DHT22;38907;45.562;8.856;2022-11-13T23:22:45;11.70;99.90
51021;DHT22;38907;45.562;8.856;2022-11-13T23:27:47;11.70;99.90
51021;DHT22;38907;45.562;8.856;2022-11-13T23:32:50;11.70;99.90
51021;DHT22;38907;45.562;8.856;2022-11-13T23:37:52;11.70;99.90
51021;DHT22;38907;45.562;8.856;2022-11-13T23:42:54;11.70;99.90
51021;DHT22;38907;45.562;8.856;2022-11-13T23:47:57;11.70;99.90
51021;DHT22;38907;45.562;8.856;2022-11-13T23:52:59;11.70;99.90
51021;DHT22;38907;45.562;8.856;2022-11-13T23:58:02;11.70;99.90
